createdAt,value
2018-12-16T00:01:46.653Z,10.63
2018-12-16T00:07:05.284Z,12.60
2018-12-16T00:12:20.126Z,10.90
2018-12-16T00:17:39.124Z,11.43
2018-12-16T00:22:52.390Z,10.93
2018-12-16T00:28:10.507Z,11.33
2018-12-16T00:33:24.042Z,10.43
2018-12-16T00:38:43.608Z,10.77
2018-12-16T00:44:15.223Z,13.17
2018-12-16T00:55:03.561Z,12.30
2018-12-16T01:00:23.905Z,11.43
2018-12-16T01:05:47.046Z,11.93
2018-12-16T01:11:05.740Z,11.50
2018-12-16T01:16:25.026Z,11.13
2018-12-16T01:21:38.723Z,12.70
2018-12-16T01:37:43.262Z,9.57
2018-12-16T01:42:47.412Z,9.78
2018-12-16T01:47:51.442Z,9.48
2018-12-16T01:52:54.938Z,11.13
2018-12-16T01:57:58.440Z,9.33
2018-12-16T02:03:03.006Z,10.90
2018-12-16T02:08:06.846Z,10.20
2018-12-16T02:13:10.383Z,11.33
2018-12-16T02:18:13.947Z,11.10
2018-12-16T02:23:18.832Z,10.73
2018-12-16T02:28:23.365Z,11.37
2018-12-16T02:33:26.937Z,11.43
2018-12-16T02:38:30.447Z,11.90
2018-12-16T02:51:07.656Z,10.43
2018-12-16T02:56:11.828Z,11.27
2018-12-16T03:01:16.394Z,11.33
2018-12-16T03:06:19.910Z,12.73
2018-12-16T03:11:23.368Z,12.20
2018-12-16T03:16:26.832Z,12.73
2018-12-16T03:21:30.595Z,11.93
2018-12-16T03:26:36.175Z,12.23
2018-12-16T03:31:40.450Z,13.07
2018-12-16T03:36:44.320Z,13.00
2018-12-16T03:41:48.212Z,11.50
2018-12-16T03:46:52.259Z,12.87
2018-12-16T03:51:56.311Z,12.03
2018-12-16T03:56:59.799Z,14.03
2018-12-16T04:02:03.421Z,13.35
2018-12-16T04:07:07.050Z,12.90
2018-12-16T04:12:10.539Z,12.07
2018-12-16T04:17:14.107Z,12.63
2018-12-16T04:22:17.921Z,12.18
2018-12-16T04:27:21.457Z,12.98
2018-12-16T04:32:25.974Z,14.93
2018-12-16T04:37:29.850Z,12.93
2018-12-16T04:42:34.841Z,13.97
2018-12-16T04:47:38.465Z,15.40
2018-12-16T04:52:41.950Z,14.80
2018-12-16T04:57:46.296Z,15.90
2018-12-16T05:02:49.918Z,15.53
2018-12-16T05:07:53.394Z,15.50
2018-12-16T05:12:57.009Z,17.13
2018-12-16T05:18:00.497Z,16.37
2018-12-16T05:23:04.348Z,16.23
2018-12-16T05:28:08.188Z,14.47
2018-12-16T05:33:13.231Z,13.07
2018-12-16T05:38:17.115Z,13.33
2018-12-16T05:43:21.169Z,13.67
2018-12-16T05:48:25.153Z,13.98
2018-12-16T05:53:28.653Z,14.70
2018-12-16T05:58:32.185Z,15.20
2018-12-16T06:03:38.256Z,14.33
2018-12-16T06:08:42.544Z,13.83
2018-12-16T06:13:46.703Z,14.07
2018-12-16T06:18:50.656Z,14.87
2018-12-16T06:23:55.785Z,14.80
2018-12-16T06:28:59.507Z,12.73
2018-12-16T06:34:05.044Z,13.60
2018-12-16T06:39:09.108Z,13.30
2018-12-16T06:44:13.303Z,13.17
2018-12-16T06:49:17.041Z,14.27
2018-12-16T06:54:20.637Z,13.70
2018-12-16T06:59:24.112Z,13.93
2018-12-16T07:04:27.885Z,15.73
2018-12-16T07:09:31.388Z,18.48
2018-12-16T07:14:34.924Z,15.00
2018-12-16T07:19:38.778Z,13.90
2018-12-16T07:24:42.430Z,13.23
2018-12-16T07:29:45.938Z,14.78
2018-12-16T07:34:49.603Z,13.43
2018-12-16T07:39:53.206Z,14.53
2018-12-16T07:44:57.052Z,13.90
2018-12-16T07:50:00.907Z,14.20
2018-12-16T07:55:05.943Z,14.37
2018-12-16T08:00:11.182Z,14.73
2018-12-16T08:05:14.761Z,14.23
2018-12-16T08:10:18.349Z,14.27
2018-12-16T08:15:24.426Z,13.72
2018-12-16T08:20:28.436Z,13.67
2018-12-16T08:25:32.782Z,14.07
2018-12-16T08:30:37.618Z,13.40
2018-12-16T08:35:41.192Z,13.57
2018-12-16T08:40:45.010Z,13.10
2018-12-16T08:45:49.022Z,12.93
2018-12-16T08:50:55.097Z,12.67
2018-12-16T08:55:59.434Z,11.27
2018-12-16T09:01:03.642Z,12.47
2018-12-16T09:06:07.509Z,10.50
2018-12-16T09:11:11.704Z,11.23
2018-12-16T09:21:54.082Z,10.97
2018-12-16T09:26:58.254Z,12.07
2018-12-16T09:32:02.850Z,11.00
2018-12-16T09:37:08.024Z,10.20
2018-12-16T09:42:12.122Z,10.50
2018-12-16T09:47:16.134Z,10.93
2018-12-16T09:52:20.652Z,9.48
2018-12-16T09:57:24.365Z,9.20
2018-12-16T10:02:27.947Z,8.63
2018-12-16T10:07:31.615Z,8.60
2018-12-16T10:12:35.215Z,8.50
2018-12-16T10:17:39.654Z,7.77
2018-12-16T10:22:43.184Z,13.93
2018-12-16T10:27:46.759Z,7.43
2018-12-16T10:32:50.254Z,8.00
2018-12-16T10:37:54.129Z,7.20
2018-12-16T10:42:58.319Z,7.57
2018-12-16T10:48:02.552Z,6.87
2018-12-16T10:53:07.670Z,6.93
2018-12-16T10:58:11.484Z,7.40
2018-12-16T11:03:14.999Z,7.03
2018-12-16T11:08:18.833Z,6.22
2018-12-16T11:13:22.596Z,6.33
2018-12-16T11:18:27.006Z,5.27
2018-12-16T11:23:31.232Z,6.40
2018-12-16T11:28:36.843Z,6.73
2018-12-16T11:33:40.592Z,6.23
2018-12-16T11:38:44.280Z,6.13
2018-12-16T11:43:55.247Z,5.40
2018-12-16T11:48:59.008Z,5.80
2018-12-16T11:54:03.500Z,6.10
2018-12-16T11:59:07.364Z,5.10
2018-12-16T12:04:11.352Z,4.63
2018-12-16T12:09:15.085Z,4.17
2018-12-16T12:14:19.155Z,4.50
2018-12-16T12:19:23.743Z,4.23
2018-12-16T12:24:27.196Z,4.03
2018-12-16T12:29:30.757Z,2.50
2018-12-16T12:34:34.291Z,3.73
2018-12-16T12:39:37.871Z,2.50
2018-12-16T12:44:41.527Z,2.67
2018-12-16T12:49:45.394Z,2.15
2018-12-16T12:54:49.059Z,2.20
2018-12-16T12:59:52.661Z,2.70
2018-12-16T13:04:56.470Z,2.67
2018-12-16T13:10:00.767Z,2.73
2018-12-16T13:15:05.405Z,2.43
2018-12-16T13:20:10.082Z,2.30
2018-12-16T13:25:24.628Z,2.63
2018-12-16T13:30:28.215Z,2.27
2018-12-16T13:35:31.698Z,1.90
2018-12-16T13:40:35.884Z,2.33
2018-12-16T13:45:39.436Z,2.37
2018-12-16T13:50:42.991Z,2.50
2018-12-16T13:55:48.272Z,2.80
2018-12-16T14:00:52.229Z,2.47
2018-12-16T14:05:56.530Z,2.60
2018-12-16T14:11:00.783Z,2.40
2018-12-16T14:16:04.733Z,1.92
2018-12-16T14:21:08.757Z,2.53
2018-12-16T14:26:14.344Z,2.60
2018-12-16T14:31:18.122Z,2.15
2018-12-16T14:36:22.122Z,2.23
2018-12-16T14:41:25.747Z,5.33
2018-12-16T14:46:30.058Z,2.70
2018-12-16T14:51:33.916Z,2.20
2018-12-16T14:56:37.726Z,3.00
2018-12-16T15:01:42.470Z,3.08
2018-12-16T15:06:47.061Z,2.87
2018-12-16T15:11:50.650Z,2.58
2018-12-16T15:16:54.283Z,2.62
2018-12-16T15:21:57.893Z,2.60
2018-12-16T15:27:01.636Z,2.60
2018-12-16T15:32:05.626Z,2.87
2018-12-16T15:37:09.669Z,3.60
2018-12-16T15:42:14.139Z,3.23
2018-12-16T15:47:17.859Z,3.50
2018-12-16T15:52:22.453Z,3.37
2018-12-16T15:57:26.124Z,3.13
2018-12-16T16:02:29.949Z,3.50
2018-12-16T16:07:33.454Z,3.57
2018-12-16T16:12:37.351Z,2.83
2018-12-16T16:17:41.011Z,13.40
2018-12-16T16:22:44.604Z,9.50
2018-12-16T16:27:48.191Z,8.30
2018-12-16T16:32:52.103Z,8.17
2018-12-16T16:38:00.604Z,9.43
2018-12-16T16:43:03.020Z,15.37
2018-12-16T16:48:06.519Z,13.30
2018-12-16T16:53:11.077Z,16.90
2018-12-16T16:58:14.554Z,12.30
2018-12-16T17:03:19.094Z,7.65
2018-12-16T17:08:24.055Z,6.43
2018-12-16T17:13:27.853Z,6.23
2018-12-16T17:18:32.041Z,5.40
2018-12-16T17:23:35.683Z,5.73
2018-12-16T17:28:39.264Z,9.03
2018-12-16T17:41:16.731Z,8.87
2018-12-16T17:46:20.544Z,8.48
2018-12-16T17:51:27.037Z,10.53
2018-12-16T17:56:36.989Z,12.57
2018-12-16T18:01:38.056Z,11.47
2018-12-16T18:06:41.855Z,10.97
2018-12-16T18:11:45.794Z,11.30
2018-12-16T18:16:50.972Z,10.85
2018-12-16T18:21:55.907Z,9.87
2018-12-16T18:26:59.748Z,11.70
2018-12-16T18:32:05.609Z,8.77
2018-12-16T18:37:09.860Z,8.03
2018-12-16T18:42:14.384Z,8.05
2018-12-16T18:47:17.941Z,7.33
2018-12-16T18:52:21.602Z,6.57
2018-12-16T18:57:25.072Z,6.73
2018-12-16T19:02:29.126Z,7.17
2018-12-16T19:07:33.086Z,7.77
2018-12-16T19:12:36.586Z,7.40
2018-12-16T19:17:40.605Z,6.30
2018-12-16T19:22:44.855Z,6.93
2018-12-16T19:27:49.041Z,7.93
2018-12-16T19:32:53.135Z,9.07
2018-12-16T19:37:57.821Z,9.90
2018-12-16T19:43:03.368Z,10.17
2018-12-16T19:48:07.668Z,8.87
2018-12-16T19:53:12.404Z,10.63
2018-12-16T19:58:16.698Z,10.90
2018-12-16T20:03:21.185Z,10.76
2018-12-16T20:08:24.896Z,10.50
2018-12-16T20:13:28.647Z,11.60
2018-12-16T20:18:32.397Z,10.17
2018-12-16T20:23:35.982Z,10.60
2018-12-16T20:28:39.452Z,9.40
2018-12-16T20:33:43.757Z,10.60
2018-12-16T20:38:48.043Z,10.63
2018-12-16T20:43:52.040Z,9.70
2018-12-16T20:48:56.434Z,8.47
2018-12-16T20:54:00.420Z,8.47
2018-12-16T20:59:04.365Z,9.17
2018-12-16T21:04:08.025Z,9.43
2018-12-16T21:09:11.971Z,8.73
2018-12-16T21:14:21.199Z,8.58
2018-12-16T21:19:25.292Z,8.90
2018-12-16T21:24:29.144Z,8.70
2018-12-16T21:29:33.271Z,8.98
2018-12-16T21:34:36.749Z,8.20
2018-12-16T21:39:40.537Z,9.27
2018-12-16T21:44:44.512Z,9.00
2018-12-16T21:49:48.818Z,9.57
2018-12-16T21:54:52.818Z,9.55
2018-12-16T21:59:56.707Z,9.00
2018-12-16T22:05:01.260Z,9.23
2018-12-16T22:10:05.310Z,8.97
2018-12-16T22:15:09.196Z,9.93
2018-12-16T22:20:13.950Z,10.00
2018-12-16T22:25:18.161Z,10.53
2018-12-16T22:30:22.061Z,11.27
2018-12-16T22:35:26.310Z,9.47
2018-12-16T22:40:29.772Z,13.25
2018-12-16T22:45:33.264Z,13.15
2018-12-16T22:50:36.815Z,11.93
2018-12-16T22:55:40.333Z,9.43
2018-12-16T23:00:49.529Z,8.83
2018-12-16T23:05:53.377Z,8.46
2018-12-16T23:10:56.874Z,8.47
2018-12-16T23:16:00.399Z,9.17
2018-12-16T23:21:04.118Z,9.30
2018-12-16T23:26:08.084Z,10.00
2018-12-16T23:31:12.337Z,9.27
2018-12-16T23:36:16.195Z,9.90
2018-12-16T23:41:20.294Z,14.20
2018-12-16T23:46:24.291Z,10.57
2018-12-16T23:51:27.756Z,11.00
2018-12-16T23:56:31.256Z,9.60
